createdAt,value
2023-04-05T06:20:34.764Z,100.00
2023-04-05T06:30:34.733Z,100.00
2023-04-05T06:40:34.787Z,100.00
2023-04-05T06:50:34.650Z,100.00
2023-04-05T07:00:34.810Z,100.00
2023-04-05T07:10:34.693Z,100.00
2023-04-05T07:20:34.629Z,100.00
2023-04-05T07:30:34.793Z,100.00
2023-04-05T07:40:34.763Z,100.00
2023-04-05T07:50:34.740Z,100.00
2023-04-05T08:00:34.794Z,100.00
2023-04-05T08:10:34.651Z,100.00
2023-04-05T08:20:34.824Z,100.00
2023-04-05T08:30:34.788Z,100.00
2023-04-05T08:40:34.820Z,100.00
2023-04-05T08:50:35.037Z,87.84
2023-04-05T09:00:35.296Z,69.70
2023-04-05T09:10:35.175Z,61.84
2023-04-05T09:20:35.224Z,62.55
2023-04-05T09:30:35.190Z,54.88
2023-04-05T09:40:35.456Z,50.10
2023-04-05T09:50:35.318Z,49.31
2023-04-05T10:00:35.119Z,49.83
2023-04-05T10:10:35.121Z,48.92
2023-04-05T10:20:35.300Z,49.57
2023-04-05T10:30:35.198Z,50.83
2023-04-05T10:40:35.252Z,53.40
2023-04-05T10:50:35.212Z,49.51
2023-04-05T11:00:35.275Z,48.66
2023-04-05T11:10:35.347Z,49.43
2023-04-05T11:20:35.187Z,48.57
2023-04-05T11:30:35.149Z,48.42
2023-04-05T11:40:35.125Z,48.50
2023-04-05T11:50:35.186Z,48.84
2023-04-05T12:00:35.248Z,49.02
2023-04-05T12:10:35.110Z,47.71
2023-04-05T12:20:35.282Z,48.51
2023-04-05T12:30:35.235Z,47.51
2023-04-05T12:40:35.117Z,47.76
2023-04-05T12:50:35.157Z,46.96
2023-04-05T13:00:35.103Z,48.66
2023-04-05T13:10:35.203Z,47.18
2023-04-05T13:20:35.295Z,47.92
2023-04-05T13:30:35.259Z,45.92
2023-04-05T13:40:35.407Z,47.28
2023-04-05T13:50:35.261Z,46.31
2023-04-05T14:00:35.224Z,45.00
2023-04-05T14:10:35.390Z,45.86
2023-04-05T14:20:35.483Z,44.40
2023-04-05T14:30:35.218Z,45.18
2023-04-05T14:40:35.361Z,43.71
2023-04-05T14:50:35.309Z,45.67
2023-04-05T15:00:35.534Z,45.81
2023-04-05T15:10:35.388Z,44.63
2023-04-05T15:20:35.460Z,44.26
2023-04-05T15:30:35.414Z,45.08
2023-04-05T15:40:35.482Z,46.19
2023-04-05T15:50:35.457Z,44.44
2023-04-05T16:00:35.499Z,45.77
2023-04-05T16:10:35.350Z,45.70
2023-04-05T16:20:35.489Z,45.03
2023-04-05T16:30:35.813Z,46.02
2023-04-05T16:40:35.669Z,49.01
2023-04-05T16:50:35.424Z,51.59
2023-04-05T17:00:35.475Z,49.65
2023-04-05T17:10:35.596Z,49.46
2023-04-05T17:20:35.635Z,51.14
2023-04-05T17:30:35.379Z,51.15
2023-04-05T17:40:35.562Z,50.37
2023-04-05T17:50:35.523Z,51.21
2023-04-05T18:00:35.534Z,56.61
2023-04-05T18:10:35.556Z,62.29
2023-04-05T18:20:35.616Z,65.32
2023-04-05T18:30:35.673Z,66.61
2023-04-05T18:40:35.847Z,69.33
2023-04-05T18:50:35.810Z,65.96
2023-04-05T19:00:35.612Z,69.43
2023-04-05T19:10:35.677Z,69.50
2023-04-05T19:20:35.486Z,70.36
